sensor_id;sensor_type;location;lat;lon;timestamp;temperature;humidity
60848;DHT22;46681;47.696;9.140;2024-03-02T00:01:07;11.10;56.50
60848;DHT22;46681;47.696;9.140;2024-03-02T00:03:36;11.20;56.60
60848;DHT22;46681;47.696;9.140;2024-03-02T00:06:02;11.20;56.50
60848;DHT22;46681;47.696;9.140;2024-03-02T00:08:31;11.20;56.40
60848;DHT22;46681;47.696;9.140;2024-03-02T00:10:58;11.20;56.40
60848;DHT22;46681;47.696;9.140;2024-03-02T00:13:23;11.20;56.40
60848;DHT22;46681;47.696;9.140;2024-03-02T00:15:57;11.10;56.70
60848;DHT22;46681;47.696;9.140;2024-03-02T00:18:34;11.20;56.30
60848;DHT22;46681;47.696;9.140;2024-03-02T00:21:00;11.20;56.30
60848;DHT22;46681;47.696;9.140;2024-03-02T00:23:31;11.20;56.20
60848;DHT22;46681;47.696;9.140;2024-03-02T00:25:58;11.20;56.20
60848;DHT22;46681;47.696;9.140;2024-03-02T00:28:36;11.20;56.10
60848;DHT22;46681;47.696;9.140;2024-03-02T00:33:42;11.20;56.10
60848;DHT22;46681;47.696;9.140;2024-03-02T00:36:08;11.20;56.10
60848;DHT22;46681;47.696;9.140;2024-03-02T00:38:34;11.20;56.10
60848;DHT22;46681;47.696;9.140;2024-03-02T00:41:07;11.20;56.20
60848;DHT22;46681;47.696;9.140;2024-03-02T00:46:13;11.30;56.00
60848;DHT22;46681;47.696;9.140;2024-03-02T00:51:17;11.30;56.00
60848;DHT22;46681;47.696;9.140;2024-03-02T00:53:42;11.30;56.10
60848;DHT22;46681;47.696;9.140;2024-03-02T00:56:10;11.20;56.10
60848;DHT22;46681;47.696;9.140;2024-03-02T00:58:36;11.20;56.10
60848;DHT22;46681;47.696;9.140;2024-03-02T01:01:02;11.30;56.20
60848;DHT22;46681;47.696;9.140;2024-03-02T01:03:27;11.30;56.20
60848;DHT22;46681;47.696;9.140;2024-03-02T01:05:53;11.30;56.20
60848;DHT22;46681;47.696;9.140;2024-03-02T01:08:18;11.30;56.20
60848;DHT22;46681;47.696;9.140;2024-03-02T01:10:44;11.30;56.20
60848;DHT22;46681;47.696;9.140;2024-03-02T01:13:09;11.30;56.30
60848;DHT22;46681;47.696;9.140;2024-03-02T01:15:35;11.30;56.30
60848;DHT22;46681;47.696;9.140;2024-03-02T01:18:00;11.30;56.30
60848;DHT22;46681;47.696;9.140;2024-03-02T01:20:26;11.40;56.30
60848;DHT22;46681;47.696;9.140;2024-03-02T01:22:51;11.40;56.60
60848;DHT22;46681;47.696;9.140;2024-03-02T01:25:17;11.40;56.20
60848;DHT22;46681;47.696;9.140;2024-03-02T01:27:42;11.40;56.20
60848;DHT22;46681;47.696;9.140;2024-03-02T01:30:10;11.40;56.30
60848;DHT22;46681;47.696;9.140;2024-03-02T01:32:40;11.40;56.30
60848;DHT22;46681;47.696;9.140;2024-03-02T01:35:07;11.40;56.30
60848;DHT22;46681;47.696;9.140;2024-03-02T01:37:32;11.50;56.30
60848;DHT22;46681;47.696;9.140;2024-03-02T01:39:58;11.40;56.20
60848;DHT22;46681;47.696;9.140;2024-03-02T01:42:23;11.50;56.20
60848;DHT22;46681;47.696;9.140;2024-03-02T01:44:49;11.50;56.20
60848;DHT22;46681;47.696;9.140;2024-03-02T01:47:15;11.50;56.20
60848;DHT22;46681;47.696;9.140;2024-03-02T01:49:40;11.50;56.20
60848;DHT22;46681;47.696;9.140;2024-03-02T01:52:06;11.50;56.20
60848;DHT22;46681;47.696;9.140;2024-03-02T01:54:32;11.40;56.20
60848;DHT22;46681;47.696;9.140;2024-03-02T01:56:57;11.50;56.30
60848;DHT22;46681;47.696;9.140;2024-03-02T01:59:23;11.50;56.30
60848;DHT22;46681;47.696;9.140;2024-03-02T02:01:49;11.50;56.30
60848;DHT22;46681;47.696;9.140;2024-03-02T02:04:16;11.50;56.20
60848;DHT22;46681;47.696;9.140;2024-03-02T02:06:46;11.50;56.30
60848;DHT22;46681;47.696;9.140;2024-03-02T02:09:12;11.50;56.30
60848;DHT22;46681;47.696;9.140;2024-03-02T02:11:37;11.50;56.30
60848;DHT22;46681;47.696;9.140;2024-03-02T02:14:03;11.50;56.30
60848;DHT22;46681;47.696;9.140;2024-03-02T02:16:28;11.50;56.30
60848;DHT22;46681;47.696;9.140;2024-03-02T02:18:54;11.50;56.30
60848;DHT22;46681;47.696;9.140;2024-03-02T02:21:22;11.50;56.30
60848;DHT22;46681;47.696;9.140;2024-03-02T02:23:48;11.50;56.30
60848;DHT22;46681;47.696;9.140;2024-03-02T02:26:13;11.50;56.40
60848;DHT22;46681;47.696;9.140;2024-03-02T02:28:39;11.50;56.40
60848;DHT22;46681;47.696;9.140;2024-03-02T02:31:04;11.60;56.40
60848;DHT22;46681;47.696;9.140;2024-03-02T02:33:30;11.60;56.40
60848;DHT22;46681;47.696;9.140;2024-03-02T02:35:55;11.60;56.30
60848;DHT22;46681;47.696;9.140;2024-03-02T02:38:21;11.60;56.30
60848;DHT22;46681;47.696;9.140;2024-03-02T02:40:46;11.50;56.30
60848;DHT22;46681;47.696;9.140;2024-03-02T02:43:12;11.50;56.30
60848;DHT22;46681;47.696;9.140;2024-03-02T02:45:37;11.50;56.40
60848;DHT22;46681;47.696;9.140;2024-03-02T02:48:03;11.60;56.40
60848;DHT22;46681;47.696;9.140;2024-03-02T02:50:30;11.60;56.40
60848;DHT22;46681;47.696;9.140;2024-03-02T02:52:55;11.60;56.30
60848;DHT22;46681;47.696;9.140;2024-03-02T02:55:21;11.60;56.30
60848;DHT22;46681;47.696;9.140;2024-03-02T02:57:46;11.60;56.30
60848;DHT22;46681;47.696;9.140;2024-03-02T03:00:14;11.60;56.30
60848;DHT22;46681;47.696;9.140;2024-03-02T03:02:42;11.60;56.40
60848;DHT22;46681;47.696;9.140;2024-03-02T03:05:09;11.60;56.40
60848;DHT22;46681;47.696;9.140;2024-03-02T03:07:35;11.60;56.40
60848;DHT22;46681;47.696;9.140;2024-03-02T03:10:02;11.60;56.40
60848;DHT22;46681;47.696;9.140;2024-03-02T03:12:30;11.60;56.40
60848;DHT22;46681;47.696;9.140;2024-03-02T03:14:56;11.60;56.40
60848;DHT22;46681;47.696;9.140;2024-03-02T03:17:22;11.60;56.40
60848;DHT22;46681;47.696;9.140;2024-03-02T03:19:50;11.60;56.50
60848;DHT22;46681;47.696;9.140;2024-03-02T03:22:16;11.60;56.50
60848;DHT22;46681;47.696;9.140;2024-03-02T03:24:41;11.60;56.50
60848;DHT22;46681;47.696;9.140;2024-03-02T03:27:07;11.70;56.50
60848;DHT22;46681;47.696;9.140;2024-03-02T03:29:36;11.60;56.40
60848;DHT22;46681;47.696;9.140;2024-03-02T03:32:01;11.60;56.40
60848;DHT22;46681;47.696;9.140;2024-03-02T03:34:27;11.60;56.40
60848;DHT22;46681;47.696;9.140;2024-03-02T03:36:52;11.60;56.50
60848;DHT22;46681;47.696;9.140;2024-03-02T03:39:18;11.70;56.50
60848;DHT22;46681;47.696;9.140;2024-03-02T03:41:43;11.60;56.50
60848;DHT22;46681;47.696;9.140;2024-03-02T03:44:09;11.70;56.40
60848;DHT22;46681;47.696;9.140;2024-03-02T03:46:34;11.70;56.40
60848;DHT22;46681;47.696;9.140;2024-03-02T03:49:00;11.70;56.40
60848;DHT22;46681;47.696;9.140;2024-03-02T03:51:26;11.60;56.40
60848;DHT22;46681;47.696;9.140;2024-03-02T03:53:54;11.70;56.50
60848;DHT22;46681;47.696;9.140;2024-03-02T03:56:21;11.70;56.50
60848;DHT22;46681;47.696;9.140;2024-03-02T03:58:46;11.60;56.50
60848;DHT22;46681;47.696;9.140;2024-03-02T04:01:14;11.60;56.50
60848;DHT22;46681;47.696;9.140;2024-03-02T04:03:40;11.70;56.50
60848;DHT22;46681;47.696;9.140;2024-03-02T04:06:07;11.70;56.40
60848;DHT22;46681;47.696;9.140;2024-03-02T04:08:33;11.60;56.40
60848;DHT22;46681;47.696;9.140;2024-03-02T04:10:59;11.60;56.40
60848;DHT22;46681;47.696;9.140;2024-03-02T04:13:24;11.60;56.40
60848;DHT22;46681;47.696;9.140;2024-03-02T04:15:50;11.60;56.50
60848;DHT22;46681;47.696;9.140;2024-03-02T04:18:15;11.60;56.40
60848;DHT22;46681;47.696;9.140;2024-03-02T04:20:43;11.60;56.40
60848;DHT22;46681;47.696;9.140;2024-03-02T04:23:08;11.60;56.40
60848;DHT22;46681;47.696;9.140;2024-03-02T04:25:34;11.70;56.40
60848;DHT22;46681;47.696;9.140;2024-03-02T04:27:59;11.60;56.30
60848;DHT22;46681;47.696;9.140;2024-03-02T04:30:25;11.60;56.30
60848;DHT22;46681;47.696;9.140;2024-03-02T04:32:50;11.60;56.40
60848;DHT22;46681;47.696;9.140;2024-03-02T04:35:16;11.60;56.40
60848;DHT22;46681;47.696;9.140;2024-03-02T04:37:41;11.60;56.30
60848;DHT22;46681;47.696;9.140;2024-03-02T04:40:07;11.60;56.30
60848;DHT22;46681;47.696;9.140;2024-03-02T04:42:33;11.60;56.30
60848;DHT22;46681;47.696;9.140;2024-03-02T04:44:59;11.60;56.30
60848;DHT22;46681;47.696;9.140;2024-03-02T04:47:24;11.60;56.20
60848;DHT22;46681;47.696;9.140;2024-03-02T04:49:50;11.60;56.30
60848;DHT22;46681;47.696;9.140;2024-03-02T04:52:18;11.60;56.40
60848;DHT22;46681;47.696;9.140;2024-03-02T04:54:44;11.60;56.40
60848;DHT22;46681;47.696;9.140;2024-03-02T04:57:09;11.60;56.30
60848;DHT22;46681;47.696;9.140;2024-03-02T04:59:35;11.60;56.30
60848;DHT22;46681;47.696;9.140;2024-03-02T05:02:00;11.60;56.30
60848;DHT22;46681;47.696;9.140;2024-03-02T05:04:26;11.60;56.60
60848;DHT22;46681;47.696;9.140;2024-03-02T05:06:54;11.70;56.30
60848;DHT22;46681;47.696;9.140;2024-03-02T05:09:19;11.60;56.20
60848;DHT22;46681;47.696;9.140;2024-03-02T05:11:44;11.60;56.30
60848;DHT22;46681;47.696;9.140;2024-03-02T05:14:12;11.60;56.30
60848;DHT22;46681;47.696;9.140;2024-03-02T05:16:39;11.60;56.20
60848;DHT22;46681;47.696;9.140;2024-03-02T05:19:04;11.70;56.20
60848;DHT22;46681;47.696;9.140;2024-03-02T05:21:32;11.70;56.20
60848;DHT22;46681;47.696;9.140;2024-03-02T05:23:57;11.80;56.00
60848;DHT22;46681;47.696;9.140;2024-03-02T05:26:23;11.80;55.90
60848;DHT22;46681;47.696;9.140;2024-03-02T05:28:51;11.90;55.60
60848;DHT22;46681;47.696;9.140;2024-03-02T05:31:19;12.00;55.50
60848;DHT22;46681;47.696;9.140;2024-03-02T05:33:44;12.00;55.40
60848;DHT22;46681;47.696;9.140;2024-03-02T05:36:10;12.10;55.30
60848;DHT22;46681;47.696;9.140;2024-03-02T05:38:36;12.10;55.10
60848;DHT22;46681;47.696;9.140;2024-03-02T05:41:02;12.10;55.10
60848;DHT22;46681;47.696;9.140;2024-03-02T05:43:28;12.10;55.10
60848;DHT22;46681;47.696;9.140;2024-03-02T05:45:53;12.20;55.00
60848;DHT22;46681;47.696;9.140;2024-03-02T05:48:19;12.20;54.90
60848;DHT22;46681;47.696;9.140;2024-03-02T05:50:44;12.20;54.80
60848;DHT22;46681;47.696;9.140;2024-03-02T05:53:10;12.30;54.80
60848;DHT22;46681;47.696;9.140;2024-03-02T05:55:35;12.30;54.70
60848;DHT22;46681;47.696;9.140;2024-03-02T05:58:02;12.30;54.70
60848;DHT22;46681;47.696;9.140;2024-03-02T06:00:28;12.20;54.70
60848;DHT22;46681;47.696;9.140;2024-03-02T06:02:53;12.30;54.80
60848;DHT22;46681;47.696;9.140;2024-03-02T06:05:19;12.30;54.80
60848;DHT22;46681;47.696;9.140;2024-03-02T06:07:46;12.30;54.80
60848;DHT22;46681;47.696;9.140;2024-03-02T06:10:12;12.30;54.80
60848;DHT22;46681;47.696;9.140;2024-03-02T06:12:40;12.30;54.90
60848;DHT22;46681;47.696;9.140;2024-03-02T06:15:06;12.40;54.80
60848;DHT22;46681;47.696;9.140;2024-03-02T06:17:35;12.30;54.80
60848;DHT22;46681;47.696;9.140;2024-03-02T06:20:04;12.30;54.70
60848;DHT22;46681;47.696;9.140;2024-03-02T06:22:29;12.30;54.80
60848;DHT22;46681;47.696;9.140;2024-03-02T06:24:55;12.30;54.70
60848;DHT22;46681;47.696;9.140;2024-03-02T06:27:21;12.30;54.80
60848;DHT22;46681;47.696;9.140;2024-03-02T06:29:50;12.30;54.80
60848;DHT22;46681;47.696;9.140;2024-03-02T06:32:15;12.30;54.80
60848;DHT22;46681;47.696;9.140;2024-03-02T06:34:43;12.20;55.00
60848;DHT22;46681;47.696;9.140;2024-03-02T06:37:08;12.20;55.00
60848;DHT22;46681;47.696;9.140;2024-03-02T06:39:34;12.20;55.00
60848;DHT22;46681;47.696;9.140;2024-03-02T06:42:01;12.10;55.00
60848;DHT22;46681;47.696;9.140;2024-03-02T06:44:26;12.20;55.00
60848;DHT22;46681;47.696;9.140;2024-03-02T06:46:57;12.10;55.10
60848;DHT22;46681;47.696;9.140;2024-03-02T06:49:22;12.10;55.20
60848;DHT22;46681;47.696;9.140;2024-03-02T06:51:48;12.10;55.30
60848;DHT22;46681;47.696;9.140;2024-03-02T06:54:13;12.10;55.50
60848;DHT22;46681;47.696;9.140;2024-03-02T06:56:38;12.10;55.80
60848;DHT22;46681;47.696;9.140;2024-03-02T06:59:05;12.10;55.90
60848;DHT22;46681;47.696;9.140;2024-03-02T07:01:32;12.10;56.00
60848;DHT22;46681;47.696;9.140;2024-03-02T07:03:58;12.10;56.00
60848;DHT22;46681;47.696;9.140;2024-03-02T07:06:28;12.10;56.10
60848;DHT22;46681;47.696;9.140;2024-03-02T07:08:57;12.10;56.20
60848;DHT22;46681;47.696;9.140;2024-03-02T07:11:25;12.00;56.10
60848;DHT22;46681;47.696;9.140;2024-03-02T07:13:51;12.10;56.20
60848;DHT22;46681;47.696;9.140;2024-03-02T07:16:18;12.00;56.20
60848;DHT22;46681;47.696;9.140;2024-03-02T07:18:43;12.00;56.40
60848;DHT22;46681;47.696;9.140;2024-03-02T07:21:09;12.00;56.30
60848;DHT22;46681;47.696;9.140;2024-03-02T07:23:34;12.00;56.40
60848;DHT22;46681;47.696;9.140;2024-03-02T07:26:01;12.00;56.40
60848;DHT22;46681;47.696;9.140;2024-03-02T07:28:28;12.00;56.30
60848;DHT22;46681;47.696;9.140;2024-03-02T07:31:02;12.00;56.30
60848;DHT22;46681;47.696;9.140;2024-03-02T07:33:33;12.00;56.40
60848;DHT22;46681;47.696;9.140;2024-03-02T07:36:00;12.00;56.50
60848;DHT22;46681;47.696;9.140;2024-03-02T07:38:30;12.00;57.00
60848;DHT22;46681;47.696;9.140;2024-03-02T07:40:56;12.10;57.90
60848;DHT22;46681;47.696;9.140;2024-03-02T07:43:25;12.10;58.50
60848;DHT22;46681;47.696;9.140;2024-03-02T07:45:50;12.20;59.20
60848;DHT22;46681;47.696;9.140;2024-03-02T07:48:21;12.20;58.70
60848;DHT22;46681;47.696;9.140;2024-03-02T07:50:47;12.20;58.30
60848;DHT22;46681;47.696;9.140;2024-03-02T07:53:13;12.10;58.00
60848;DHT22;46681;47.696;9.140;2024-03-02T07:55:39;12.00;57.80
60848;DHT22;46681;47.696;9.140;2024-03-02T07:58:05;12.00;57.70
60848;DHT22;46681;47.696;9.140;2024-03-02T08:00:34;12.00;57.70
60848;DHT22;46681;47.696;9.140;2024-03-02T08:03:03;12.00;57.70
60848;DHT22;46681;47.696;9.140;2024-03-02T08:05:30;11.90;57.50
60848;DHT22;46681;47.696;9.140;2024-03-02T08:07:59;11.90;57.50
60848;DHT22;46681;47.696;9.140;2024-03-02T08:10:24;11.90;57.40
60848;DHT22;46681;47.696;9.140;2024-03-02T08:12:54;12.00;58.70
60848;DHT22;46681;47.696;9.140;2024-03-02T08:15:19;12.00;58.10
60848;DHT22;46681;47.696;9.140;2024-03-02T08:17:45;12.00;57.80
60848;DHT22;46681;47.696;9.140;2024-03-02T08:20:11;12.00;57.60
60848;DHT22;46681;47.696;9.140;2024-03-02T08:22:40;12.00;57.50
60848;DHT22;46681;47.696;9.140;2024-03-02T08:25:08;12.10;57.40
60848;DHT22;46681;47.696;9.140;2024-03-02T08:27:34;12.10;57.20
60848;DHT22;46681;47.696;9.140;2024-03-02T08:30:04;12.10;57.10
60848;DHT22;46681;47.696;9.140;2024-03-02T08:32:31;12.10;57.40
60848;DHT22;46681;47.696;9.140;2024-03-02T08:34:57;12.20;57.00
60848;DHT22;46681;47.696;9.140;2024-03-02T08:37:26;12.20;56.90
60848;DHT22;46681;47.696;9.140;2024-03-02T08:39:52;12.20;56.90
60848;DHT22;46681;47.696;9.140;2024-03-02T08:42:21;12.20;56.80
60848;DHT22;46681;47.696;9.140;2024-03-02T08:44:49;12.20;56.70
60848;DHT22;46681;47.696;9.140;2024-03-02T08:47:19;12.30;56.70
60848;DHT22;46681;47.696;9.140;2024-03-02T08:49:46;12.30;56.80
60848;DHT22;46681;47.696;9.140;2024-03-02T08:52:13;12.40;56.80
60848;DHT22;46681;47.696;9.140;2024-03-02T08:54:41;12.40;56.70
60848;DHT22;46681;47.696;9.140;2024-03-02T08:57:06;12.40;56.70
60848;DHT22;46681;47.696;9.140;2024-03-02T08:59:34;12.50;57.50
60848;DHT22;46681;47.696;9.140;2024-03-02T09:02:07;12.50;57.10
60848;DHT22;46681;47.696;9.140;2024-03-02T09:04:32;12.60;56.90
60848;DHT22;46681;47.696;9.140;2024-03-02T09:06:59;12.60;56.80
60848;DHT22;46681;47.696;9.140;2024-03-02T09:09:29;12.60;56.60
60848;DHT22;46681;47.696;9.140;2024-03-02T09:12:01;12.60;56.50
60848;DHT22;46681;47.696;9.140;2024-03-02T09:14:33;12.60;56.50
60848;DHT22;46681;47.696;9.140;2024-03-02T09:17:04;12.70;56.50
60848;DHT22;46681;47.696;9.140;2024-03-02T09:19:38;12.70;56.50
60848;DHT22;46681;47.696;9.140;2024-03-02T09:22:04;12.70;56.40
60848;DHT22;46681;47.696;9.140;2024-03-02T09:24:35;12.70;56.30
60848;DHT22;46681;47.696;9.140;2024-03-02T09:27:01;12.70;56.20
60848;DHT22;46681;47.696;9.140;2024-03-02T09:29:27;12.80;56.20
60848;DHT22;46681;47.696;9.140;2024-03-02T09:32:00;12.80;56.10
60848;DHT22;46681;47.696;9.140;2024-03-02T09:34:26;12.80;56.10
60848;DHT22;46681;47.696;9.140;2024-03-02T09:36:51;12.80;56.10
60848;DHT22;46681;47.696;9.140;2024-03-02T09:39:17;13.00;56.80
60848;DHT22;46681;47.696;9.140;2024-03-02T09:41:53;12.90;56.20
60848;DHT22;46681;47.696;9.140;2024-03-02T09:44:20;12.90;56.10
60848;DHT22;46681;47.696;9.140;2024-03-02T09:46:54;12.90;56.10
60848;DHT22;46681;47.696;9.140;2024-03-02T09:49:20;13.00;56.10
60848;DHT22;46681;47.696;9.140;2024-03-02T09:51:50;13.00;56.10
60848;DHT22;46681;47.696;9.140;2024-03-02T09:54:20;13.00;56.10
60848;DHT22;46681;47.696;9.140;2024-03-02T09:56:54;13.00;56.10
60848;DHT22;46681;47.696;9.140;2024-03-02T09:59:20;13.00;56.10
60848;DHT22;46681;47.696;9.140;2024-03-02T10:02:01;13.00;56.10
60848;DHT22;46681;47.696;9.140;2024-03-02T10:04:32;13.00;56.00
60848;DHT22;46681;47.696;9.140;2024-03-02T10:07:19;13.00;56.00
60848;DHT22;46681;47.696;9.140;2024-03-02T10:09:51;13.00;56.00
60848;DHT22;46681;47.696;9.140;2024-03-02T10:12:22;13.00;56.00
60848;DHT22;46681;47.696;9.140;2024-03-02T10:15:13;13.10;56.00
60848;DHT22;46681;47.696;9.140;2024-03-02T10:17:41;13.10;56.00
60848;DHT22;46681;47.696;9.140;2024-03-02T10:20:26;13.20;55.90
60848;DHT22;46681;47.696;9.140;2024-03-02T10:23:19;13.30;55.70
60848;DHT22;46681;47.696;9.140;2024-03-02T10:25:44;13.40;55.50
60848;DHT22;46681;47.696;9.140;2024-03-02T10:28:11;13.50;55.40
60848;DHT22;46681;47.696;9.140;2024-03-02T10:30:37;13.50;55.20
60848;DHT22;46681;47.696;9.140;2024-03-02T10:33:05;13.60;55.20
60848;DHT22;46681;47.696;9.140;2024-03-02T10:35:31;13.60;55.10
60848;DHT22;46681;47.696;9.140;2024-03-02T10:38:29;13.70;55.30
60848;DHT22;46681;47.696;9.140;2024-03-02T10:40:56;13.80;55.40
60848;DHT22;46681;47.696;9.140;2024-03-02T10:43:37;13.90;55.20
60848;DHT22;46681;47.696;9.140;2024-03-02T10:46:11;13.90;55.00
60848;DHT22;46681;47.696;9.140;2024-03-02T10:49:03;14.00;54.80
60848;DHT22;46681;47.696;9.140;2024-03-02T10:51:31;14.20;54.80
60848;DHT22;46681;47.696;9.140;2024-03-02T10:54:08;14.20;54.80
60848;DHT22;46681;47.696;9.140;2024-03-02T10:56:43;14.30;54.70
60848;DHT22;46681;47.696;9.140;2024-03-02T11:02:07;14.50;54.50
60848;DHT22;46681;47.696;9.140;2024-03-02T11:04:43;14.60;54.20
60848;DHT22;46681;47.696;9.140;2024-03-02T11:07:19;14.90;54.40
60848;DHT22;46681;47.696;9.140;2024-03-02T11:10:01;15.30;53.20
60848;DHT22;46681;47.696;9.140;2024-03-02T11:13:02;15.70;52.50
60848;DHT22;46681;47.696;9.140;2024-03-02T11:15:54;16.20;51.80
60848;DHT22;46681;47.696;9.140;2024-03-02T11:18:29;16.50;51.30
60848;DHT22;46681;47.696;9.140;2024-03-02T11:21:07;16.90;51.00
60848;DHT22;46681;47.696;9.140;2024-03-02T11:23:42;17.20;50.60
60848;DHT22;46681;47.696;9.140;2024-03-02T11:26:27;17.40;50.00
60848;DHT22;46681;47.696;9.140;2024-03-02T11:29:05;17.70;49.60
60848;DHT22;46681;47.696;9.140;2024-03-02T11:32:02;17.90;49.30
60848;DHT22;46681;47.696;9.140;2024-03-02T11:34:33;18.10;49.10
60848;DHT22;46681;47.696;9.140;2024-03-02T11:37:03;18.30;48.80
60848;DHT22;46681;47.696;9.140;2024-03-02T11:39:35;18.50;48.60
60848;DHT22;46681;47.696;9.140;2024-03-02T11:42:13;18.70;48.40
60848;DHT22;46681;47.696;9.140;2024-03-02T11:44:49;18.90;48.20
60848;DHT22;46681;47.696;9.140;2024-03-02T11:47:16;19.10;48.00
60848;DHT22;46681;47.696;9.140;2024-03-02T11:50:04;19.20;47.70
60848;DHT22;46681;47.696;9.140;2024-03-02T11:52:47;19.40;47.60
60848;DHT22;46681;47.696;9.140;2024-03-02T11:55:26;19.50;47.40
60848;DHT22;46681;47.696;9.140;2024-03-02T11:57:59;19.70;47.30
60848;DHT22;46681;47.696;9.140;2024-03-02T12:00:53;19.80;47.20
60848;DHT22;46681;47.696;9.140;2024-03-02T12:03:25;20.00;47.00
60848;DHT22;46681;47.696;9.140;2024-03-02T12:05:54;20.10;46.90
60848;DHT22;46681;47.696;9.140;2024-03-02T12:08:19;20.20;46.80
60848;DHT22;46681;47.696;9.140;2024-03-02T12:11:01;20.30;46.60
60848;DHT22;46681;47.696;9.140;2024-03-02T12:13:27;20.50;46.40
60848;DHT22;46681;47.696;9.140;2024-03-02T12:16:03;20.60;46.30
60848;DHT22;46681;47.696;9.140;2024-03-02T12:18:30;20.70;46.30
60848;DHT22;46681;47.696;9.140;2024-03-02T12:20:59;20.70;46.30
60848;DHT22;46681;47.696;9.140;2024-03-02T12:23:30;20.90;46.10
60848;DHT22;46681;47.696;9.140;2024-03-02T12:26:03;21.00;46.00
60848;DHT22;46681;47.696;9.140;2024-03-02T12:28:37;21.10;45.90
60848;DHT22;46681;47.696;9.140;2024-03-02T12:31:03;21.10;45.80
60848;DHT22;46681;47.696;9.140;2024-03-02T12:33:33;21.20;45.70
60848;DHT22;46681;47.696;9.140;2024-03-02T12:36:02;21.20;45.40
60848;DHT22;46681;47.696;9.140;2024-03-02T12:38:33;21.30;45.40
60848;DHT22;46681;47.696;9.140;2024-03-02T12:41:07;21.30;45.60
60848;DHT22;46681;47.696;9.140;2024-03-02T12:43:39;21.40;45.50
60848;DHT22;46681;47.696;9.140;2024-03-02T12:46:05;21.50;45.40
60848;DHT22;46681;47.696;9.140;2024-03-02T12:48:35;21.60;45.20
60848;DHT22;46681;47.696;9.140;2024-03-02T12:51:08;21.70;45.20
60848;DHT22;46681;47.696;9.140;2024-03-02T12:53:42;21.70;44.90
60848;DHT22;46681;47.696;9.140;2024-03-02T12:56:12;21.70;44.80
60848;DHT22;46681;47.696;9.140;2024-03-02T12:58:55;21.70;44.70
60848;DHT22;46681;47.696;9.140;2024-03-02T13:01:32;21.60;44.80
60848;DHT22;46681;47.696;9.140;2024-03-02T13:04:09;21.80;44.70
60848;DHT22;46681;47.696;9.140;2024-03-02T13:06:45;21.90;44.60
60848;DHT22;46681;47.696;9.140;2024-03-02T13:09:17;22.00;44.40
60848;DHT22;46681;47.696;9.140;2024-03-02T13:11:57;22.10;44.40
60848;DHT22;46681;47.696;9.140;2024-03-02T13:14:32;22.10;44.40
60848;DHT22;46681;47.696;9.140;2024-03-02T13:17:02;22.00;44.40
60848;DHT22;46681;47.696;9.140;2024-03-02T13:19:31;22.00;44.30
60848;DHT22;46681;47.696;9.140;2024-03-02T13:21:57;21.90;44.40
60848;DHT22;46681;47.696;9.140;2024-03-02T13:24:24;21.90;44.50
60848;DHT22;46681;47.696;9.140;2024-03-02T13:26:51;22.00;44.50
60848;DHT22;46681;47.696;9.140;2024-03-02T13:29:22;22.00;44.50
60848;DHT22;46681;47.696;9.140;2024-03-02T13:31:48;22.00;44.50
60848;DHT22;46681;47.696;9.140;2024-03-02T13:34:20;22.00;44.50
60848;DHT22;46681;47.696;9.140;2024-03-02T13:36:46;22.10;44.20
60848;DHT22;46681;47.696;9.140;2024-03-02T13:39:21;22.30;44.20
60848;DHT22;46681;47.696;9.140;2024-03-02T13:42:02;22.40;44.00
60848;DHT22;46681;47.696;9.140;2024-03-02T13:44:28;22.50;43.90
60848;DHT22;46681;47.696;9.140;2024-03-02T13:47:12;22.40;43.70
60848;DHT22;46681;47.696;9.140;2024-03-02T13:49:39;22.30;43.90
60848;DHT22;46681;47.696;9.140;2024-03-02T13:52:07;22.30;44.40
60848;DHT22;46681;47.696;9.140;2024-03-02T13:54:37;22.50;43.90
60848;DHT22;46681;47.696;9.140;2024-03-02T13:57:11;22.70;43.70
60848;DHT22;46681;47.696;9.140;2024-03-02T13:59:46;22.80;43.40
60848;DHT22;46681;47.696;9.140;2024-03-02T14:02:19;22.80;43.40
60848;DHT22;46681;47.696;9.140;2024-03-02T14:04:49;22.60;43.30
60848;DHT22;46681;47.696;9.140;2024-03-02T14:07:17;22.60;43.20
60848;DHT22;46681;47.696;9.140;2024-03-02T14:09:45;22.60;43.30
60848;DHT22;46681;47.696;9.140;2024-03-02T14:12:15;22.60;43.30
60848;DHT22;46681;47.696;9.140;2024-03-02T14:14:41;22.60;43.40
60848;DHT22;46681;47.696;9.140;2024-03-02T14:17:11;22.60;43.40
60848;DHT22;46681;47.696;9.140;2024-03-02T14:19:44;22.50;43.40
60848;DHT22;46681;47.696;9.140;2024-03-02T14:22:09;22.50;43.40
60848;DHT22;46681;47.696;9.140;2024-03-02T14:24:38;22.40;43.60
60848;DHT22;46681;47.696;9.140;2024-03-02T14:27:07;22.20;43.70
60848;DHT22;46681;47.696;9.140;2024-03-02T14:29:33;22.00;43.80
60848;DHT22;46681;47.696;9.140;2024-03-02T14:32:06;21.80;44.10
60848;DHT22;46681;47.696;9.140;2024-03-02T14:34:34;21.70;44.30
60848;DHT22;46681;47.696;9.140;2024-03-02T14:37:02;21.50;44.40
60848;DHT22;46681;47.696;9.140;2024-03-02T14:39:27;21.50;44.60
60848;DHT22;46681;47.696;9.140;2024-03-02T14:41:59;21.30;44.50
60848;DHT22;46681;47.696;9.140;2024-03-02T14:44:24;21.20;44.80
60848;DHT22;46681;47.696;9.140;2024-03-02T14:47:00;21.10;44.40
60848;DHT22;46681;47.696;9.140;2024-03-02T14:49:33;21.00;45.00
60848;DHT22;46681;47.696;9.140;2024-03-02T14:52:00;20.80;44.80
60848;DHT22;46681;47.696;9.140;2024-03-02T14:54:40;20.60;44.80
60848;DHT22;46681;47.696;9.140;2024-03-02T15:00:15;20.30;45.20
60848;DHT22;46681;47.696;9.140;2024-03-02T15:02:49;20.10;45.20
60848;DHT22;46681;47.696;9.140;2024-03-02T15:05:15;19.90;45.20
60848;DHT22;46681;47.696;9.140;2024-03-02T15:07:41;19.80;45.20
60848;DHT22;46681;47.696;9.140;2024-03-02T15:10:09;19.70;45.50
60848;DHT22;46681;47.696;9.140;2024-03-02T15:12:42;19.50;45.60
60848;DHT22;46681;47.696;9.140;2024-03-02T15:15:11;19.40;45.50
60848;DHT22;46681;47.696;9.140;2024-03-02T15:17:59;19.30;45.80
60848;DHT22;46681;47.696;9.140;2024-03-02T15:20:28;19.20;45.60
60848;DHT22;46681;47.696;9.140;2024-03-02T15:22:59;19.10;45.80
60848;DHT22;46681;47.696;9.140;2024-03-02T15:25:25;19.00;46.00
60848;DHT22;46681;47.696;9.140;2024-03-02T15:28:15;18.90;46.20
60848;DHT22;46681;47.696;9.140;2024-03-02T15:30:52;18.80;46.30
60848;DHT22;46681;47.696;9.140;2024-03-02T15:33:19;18.70;46.50
60848;DHT22;46681;47.696;9.140;2024-03-02T15:35:49;18.60;47.20
60848;DHT22;46681;47.696;9.140;2024-03-02T15:38:23;18.30;46.90
60848;DHT22;46681;47.696;9.140;2024-03-02T15:41:00;18.30;47.20
60848;DHT22;46681;47.696;9.140;2024-03-02T15:43:29;18.20;47.40
60848;DHT22;46681;47.696;9.140;2024-03-02T15:46:18;18.20;47.50
60848;DHT22;46681;47.696;9.140;2024-03-02T15:49:03;18.10;47.70
60848;DHT22;46681;47.696;9.140;2024-03-02T15:51:30;18.00;47.90
60848;DHT22;46681;47.696;9.140;2024-03-02T15:53:58;17.90;48.10
60848;DHT22;46681;47.696;9.140;2024-03-02T15:56:39;17.90;48.20